sensor_id;sensor_type;location;lat;lon;timestamp;temperature;humidity
38008;DHT22;75335;50.812;12.376;2024-02-14T00:00:11;4.50;84.80
38008;DHT22;75335;50.812;12.376;2024-02-14T00:02:41;4.40;84.80
38008;DHT22;75335;50.812;12.376;2024-02-14T00:05:12;4.40;84.70
38008;DHT22;75335;50.812;12.376;2024-02-14T00:07:41;4.50;84.40
38008;DHT22;75335;50.812;12.376;2024-02-14T00:10:11;4.50;84.50
38008;DHT22;75335;50.812;12.376;2024-02-14T00:12:41;4.50;84.50
38008;DHT22;75335;50.812;12.376;2024-02-14T00:15:14;4.50;84.50
38008;DHT22;75335;50.812;12.376;2024-02-14T00:17:42;4.50;84.60
38008;DHT22;75335;50.812;12.376;2024-02-14T00:20:13;4.50;84.30
38008;DHT22;75335;50.812;12.376;2024-02-14T00:22:42;4.60;84.20
38008;DHT22;75335;50.812;12.376;2024-02-14T00:25:12;4.50;84.20
38008;DHT22;75335;50.812;12.376;2024-02-14T00:27:42;4.60;84.30
38008;DHT22;75335;50.812;12.376;2024-02-14T00:30:20;4.60;84.30
38008;DHT22;75335;50.812;12.376;2024-02-14T00:32:50;4.70;84.40
38008;DHT22;75335;50.812;12.376;2024-02-14T00:35:19;4.70;84.10
38008;DHT22;75335;50.812;12.376;2024-02-14T00:37:49;4.60;84.30
38008;DHT22;75335;50.812;12.376;2024-02-14T00:40:19;4.70;84.20
38008;DHT22;75335;50.812;12.376;2024-02-14T00:42:49;4.70;84.30
38008;DHT22;75335;50.812;12.376;2024-02-14T00:45:22;4.70;84.30
38008;DHT22;75335;50.812;12.376;2024-02-14T00:47:50;4.70;84.70
38008;DHT22;75335;50.812;12.376;2024-02-14T00:50:19;4.70;84.30
38008;DHT22;75335;50.812;12.376;2024-02-14T00:52:51;4.70;84.40
38008;DHT22;75335;50.812;12.376;2024-02-14T00:55:21;4.80;84.40
38008;DHT22;75335;50.812;12.376;2024-02-14T00:57:52;4.80;84.20
38008;DHT22;75335;50.812;12.376;2024-02-14T01:00:30;4.80;83.90
38008;DHT22;75335;50.812;12.376;2024-02-14T01:02:59;4.80;83.50
38008;DHT22;75335;50.812;12.376;2024-02-14T01:05:29;4.90;83.70
38008;DHT22;75335;50.812;12.376;2024-02-14T01:08:08;4.80;84.10
38008;DHT22;75335;50.812;12.376;2024-02-14T01:10:38;4.90;83.70
38008;DHT22;75335;50.812;12.376;2024-02-14T01:13:08;5.00;83.30
38008;DHT22;75335;50.812;12.376;2024-02-14T01:15:40;4.90;83.40
38008;DHT22;75335;50.812;12.376;2024-02-14T01:18:09;5.00;83.50
38008;DHT22;75335;50.812;12.376;2024-02-14T01:20:38;5.00;83.20
38008;DHT22;75335;50.812;12.376;2024-02-14T01:23:06;5.00;83.30
38008;DHT22;75335;50.812;12.376;2024-02-14T01:25:36;5.00;83.10
38008;DHT22;75335;50.812;12.376;2024-02-14T01:28:16;5.00;82.90
38008;DHT22;75335;50.812;12.376;2024-02-14T01:30:47;5.00;83.00
38008;DHT22;75335;50.812;12.376;2024-02-14T01:33:20;5.10;82.60
38008;DHT22;75335;50.812;12.376;2024-02-14T01:35:48;5.10;82.40
38008;DHT22;75335;50.812;12.376;2024-02-14T01:38:16;5.10;82.60
38008;DHT22;75335;50.812;12.376;2024-02-14T01:40:44;5.10;82.20
38008;DHT22;75335;50.812;12.376;2024-02-14T01:43:14;5.10;82.30
38008;DHT22;75335;50.812;12.376;2024-02-14T01:45:42;5.10;82.00
38008;DHT22;75335;50.812;12.376;2024-02-14T01:48:16;5.10;82.20
38008;DHT22;75335;50.812;12.376;2024-02-14T01:50:44;5.10;81.90
38008;DHT22;75335;50.812;12.376;2024-02-14T01:53:13;5.10;81.90
38008;DHT22;75335;50.812;12.376;2024-02-14T01:55:41;5.00;82.00
38008;DHT22;75335;50.812;12.376;2024-02-14T01:58:11;5.00;82.00
38008;DHT22;75335;50.812;12.376;2024-02-14T02:00:40;5.00;81.40
38008;DHT22;75335;50.812;12.376;2024-02-14T02:03:10;5.10;81.50
38008;DHT22;75335;50.812;12.376;2024-02-14T02:05:42;5.10;81.30
38008;DHT22;75335;50.812;12.376;2024-02-14T02:08:10;5.10;80.90
38008;DHT22;75335;50.812;12.376;2024-02-14T02:10:39;5.20;81.00
38008;DHT22;75335;50.812;12.376;2024-02-14T02:13:09;5.10;81.20
38008;DHT22;75335;50.812;12.376;2024-02-14T02:15:37;5.10;81.10
38008;DHT22;75335;50.812;12.376;2024-02-14T02:18:07;5.10;81.10
38008;DHT22;75335;50.812;12.376;2024-02-14T02:20:35;5.10;81.00
38008;DHT22;75335;50.812;12.376;2024-02-14T02:23:08;5.20;80.70
38008;DHT22;75335;50.812;12.376;2024-02-14T02:25:42;5.10;81.10
38008;DHT22;75335;50.812;12.376;2024-02-14T02:28:15;5.10;81.00
38008;DHT22;75335;50.812;12.376;2024-02-14T02:30:43;5.10;81.30
38008;DHT22;75335;50.812;12.376;2024-02-14T02:33:12;5.10;81.20
38008;DHT22;75335;50.812;12.376;2024-02-14T02:35:42;5.10;81.00
38008;DHT22;75335;50.812;12.376;2024-02-14T02:38:12;5.10;80.90
38008;DHT22;75335;50.812;12.376;2024-02-14T02:40:40;5.20;80.70
38008;DHT22;75335;50.812;12.376;2024-02-14T02:43:09;5.20;80.50
38008;DHT22;75335;50.812;12.376;2024-02-14T02:45:37;5.20;80.80
38008;DHT22;75335;50.812;12.376;2024-02-14T02:48:06;5.20;80.80
38008;DHT22;75335;50.812;12.376;2024-02-14T02:50:34;5.20;80.60
38008;DHT22;75335;50.812;12.376;2024-02-14T02:53:02;5.10;80.70
38008;DHT22;75335;50.812;12.376;2024-02-14T02:55:32;5.10;80.60
38008;DHT22;75335;50.812;12.376;2024-02-14T02:58:03;5.10;81.00
38008;DHT22;75335;50.812;12.376;2024-02-14T03:00:33;5.20;81.00
38008;DHT22;75335;50.812;12.376;2024-02-14T03:03:02;5.20;80.90
38008;DHT22;75335;50.812;12.376;2024-02-14T03:05:32;5.20;80.70
38008;DHT22;75335;50.812;12.376;2024-02-14T03:08:03;5.10;81.10
38008;DHT22;75335;50.812;12.376;2024-02-14T03:10:39;5.10;81.10
38008;DHT22;75335;50.812;12.376;2024-02-14T03:13:09;5.20;80.90
38008;DHT22;75335;50.812;12.376;2024-02-14T03:15:39;5.20;80.70
38008;DHT22;75335;50.812;12.376;2024-02-14T03:18:11;5.10;81.00
38008;DHT22;75335;50.812;12.376;2024-02-14T03:20:39;5.20;81.00
38008;DHT22;75335;50.812;12.376;2024-02-14T03:23:11;5.20;80.70
38008;DHT22;75335;50.812;12.376;2024-02-14T03:25:42;5.30;80.40
38008;DHT22;75335;50.812;12.376;2024-02-14T03:28:10;5.20;80.50
38008;DHT22;75335;50.812;12.376;2024-02-14T03:30:39;5.30;80.70
38008;DHT22;75335;50.812;12.376;2024-02-14T03:33:08;5.30;80.60
38008;DHT22;75335;50.812;12.376;2024-02-14T03:35:37;5.30;80.60
38008;DHT22;75335;50.812;12.376;2024-02-14T03:38:07;5.20;80.50
38008;DHT22;75335;50.812;12.376;2024-02-14T03:40:36;5.30;80.40
38008;DHT22;75335;50.812;12.376;2024-02-14T03:43:06;5.30;80.40
38008;DHT22;75335;50.812;12.376;2024-02-14T03:45:37;5.40;80.30
38008;DHT22;75335;50.812;12.376;2024-02-14T03:48:06;5.40;80.20
38008;DHT22;75335;50.812;12.376;2024-02-14T03:50:36;5.40;80.00
38008;DHT22;75335;50.812;12.376;2024-02-14T03:53:10;5.50;79.70
38008;DHT22;75335;50.812;12.376;2024-02-14T03:55:38;5.50;79.70
38008;DHT22;75335;50.812;12.376;2024-02-14T03:58:08;5.50;79.80
38008;DHT22;75335;50.812;12.376;2024-02-14T04:00:41;5.50;79.70
38008;DHT22;75335;50.812;12.376;2024-02-14T04:03:12;5.50;79.60
38008;DHT22;75335;50.812;12.376;2024-02-14T04:05:40;5.60;79.70
38008;DHT22;75335;50.812;12.376;2024-02-14T04:08:09;5.50;79.50
38008;DHT22;75335;50.812;12.376;2024-02-14T04:10:37;5.60;79.50
38008;DHT22;75335;50.812;12.376;2024-02-14T04:13:06;5.70;79.10
38008;DHT22;75335;50.812;12.376;2024-02-14T04:15:39;5.60;79.10
38008;DHT22;75335;50.812;12.376;2024-02-14T04:18:10;5.60;78.80
38008;DHT22;75335;50.812;12.376;2024-02-14T04:20:38;5.60;78.70
38008;DHT22;75335;50.812;12.376;2024-02-14T04:23:07;5.70;78.70
38008;DHT22;75335;50.812;12.376;2024-02-14T04:25:36;5.70;78.80
38008;DHT22;75335;50.812;12.376;2024-02-14T04:28:08;5.70;78.70
38008;DHT22;75335;50.812;12.376;2024-02-14T04:30:38;5.70;78.30
38008;DHT22;75335;50.812;12.376;2024-02-14T04:33:08;5.70;78.30
38008;DHT22;75335;50.812;12.376;2024-02-14T04:35:40;5.70;77.80
38008;DHT22;75335;50.812;12.376;2024-02-14T04:38:09;5.80;78.00
38008;DHT22;75335;50.812;12.376;2024-02-14T04:40:37;5.80;77.60
38008;DHT22;75335;50.812;12.376;2024-02-14T04:43:09;5.90;77.50
38008;DHT22;75335;50.812;12.376;2024-02-14T04:45:43;5.90;76.20
38008;DHT22;75335;50.812;12.376;2024-02-14T04:48:17;5.90;76.60
38008;DHT22;75335;50.812;12.376;2024-02-14T04:50:46;6.00;76.40
38008;DHT22;75335;50.812;12.376;2024-02-14T04:53:15;6.00;76.30
38008;DHT22;75335;50.812;12.376;2024-02-14T04:55:45;6.00;76.20
38008;DHT22;75335;50.812;12.376;2024-02-14T04:58:20;6.00;76.00
38008;DHT22;75335;50.812;12.376;2024-02-14T05:00:49;6.10;76.10
38008;DHT22;75335;50.812;12.376;2024-02-14T05:03:32;6.10;75.70
38008;DHT22;75335;50.812;12.376;2024-02-14T05:06:02;6.00;75.60
38008;DHT22;75335;50.812;12.376;2024-02-14T05:08:32;6.00;75.40
38008;DHT22;75335;50.812;12.376;2024-02-14T05:11:01;6.10;75.20
38008;DHT22;75335;50.812;12.376;2024-02-14T05:13:34;6.20;74.70
38008;DHT22;75335;50.812;12.376;2024-02-14T05:16:04;6.20;74.60
38008;DHT22;75335;50.812;12.376;2024-02-14T05:18:33;6.20;74.30
38008;DHT22;75335;50.812;12.376;2024-02-14T05:21:06;6.30;73.60
38008;DHT22;75335;50.812;12.376;2024-02-14T05:23:35;6.20;74.30
38008;DHT22;75335;50.812;12.376;2024-02-14T05:26:06;6.30;73.70
38008;DHT22;75335;50.812;12.376;2024-02-14T05:28:48;6.30;73.70
38008;DHT22;75335;50.812;12.376;2024-02-14T05:31:16;6.40;73.40
38008;DHT22;75335;50.812;12.376;2024-02-14T05:33:45;6.40;73.10
38008;DHT22;75335;50.812;12.376;2024-02-14T05:36:13;6.40;73.20
38008;DHT22;75335;50.812;12.376;2024-02-14T05:38:44;6.40;72.90
38008;DHT22;75335;50.812;12.376;2024-02-14T05:41:16;6.50;72.80
38008;DHT22;75335;50.812;12.376;2024-02-14T05:43:47;6.50;73.30
38008;DHT22;75335;50.812;12.376;2024-02-14T05:46:17;6.40;73.00
38008;DHT22;75335;50.812;12.376;2024-02-14T05:48:48;6.50;73.20
38008;DHT22;75335;50.812;12.376;2024-02-14T05:51:18;6.50;73.40
38008;DHT22;75335;50.812;12.376;2024-02-14T05:53:51;6.40;73.90
38008;DHT22;75335;50.812;12.376;2024-02-14T05:56:20;6.50;73.80
38008;DHT22;75335;50.812;12.376;2024-02-14T05:58:52;6.40;73.70
38008;DHT22;75335;50.812;12.376;2024-02-14T06:01:22;6.50;73.80
38008;DHT22;75335;50.812;12.376;2024-02-14T06:03:51;6.50;73.70
38008;DHT22;75335;50.812;12.376;2024-02-14T06:06:20;6.40;73.60
38008;DHT22;75335;50.812;12.376;2024-02-14T06:08:51;6.40;73.70
38008;DHT22;75335;50.812;12.376;2024-02-14T06:11:22;6.50;74.10
38008;DHT22;75335;50.812;12.376;2024-02-14T06:13:53;6.50;74.00
38008;DHT22;75335;50.812;12.376;2024-02-14T06:16:22;6.50;73.80
38008;DHT22;75335;50.812;12.376;2024-02-14T06:18:51;6.50;73.60
38008;DHT22;75335;50.812;12.376;2024-02-14T06:21:21;6.50;74.10
38008;DHT22;75335;50.812;12.376;2024-02-14T06:23:52;6.40;73.80
38008;DHT22;75335;50.812;12.376;2024-02-14T06:26:21;6.50;74.20
38008;DHT22;75335;50.812;12.376;2024-02-14T06:28:53;6.50;73.80
38008;DHT22;75335;50.812;12.376;2024-02-14T06:31:24;6.50;74.10
38008;DHT22;75335;50.812;12.376;2024-02-14T06:34:09;6.50;73.60
38008;DHT22;75335;50.812;12.376;2024-02-14T06:36:45;6.40;74.10
38008;DHT22;75335;50.812;12.376;2024-02-14T06:39:14;6.50;74.00
38008;DHT22;75335;50.812;12.376;2024-02-14T06:41:43;6.40;74.20
38008;DHT22;75335;50.812;12.376;2024-02-14T06:44:29;6.50;74.10
38008;DHT22;75335;50.812;12.376;2024-02-14T06:46:58;6.40;74.10
38008;DHT22;75335;50.812;12.376;2024-02-14T06:49:33;6.50;74.10
38008;DHT22;75335;50.812;12.376;2024-02-14T06:52:03;6.40;74.40
38008;DHT22;75335;50.812;12.376;2024-02-14T06:54:32;6.50;74.60
38008;DHT22;75335;50.812;12.376;2024-02-14T06:57:01;6.50;74.90
38008;DHT22;75335;50.812;12.376;2024-02-14T06:59:32;6.50;75.00
38008;DHT22;75335;50.812;12.376;2024-02-14T07:02:03;6.50;75.40
38008;DHT22;75335;50.812;12.376;2024-02-14T07:04:56;6.50;75.30
38008;DHT22;75335;50.812;12.376;2024-02-14T07:07:31;6.50;75.20
38008;DHT22;75335;50.812;12.376;2024-02-14T07:10:00;6.50;75.20
38008;DHT22;75335;50.812;12.376;2024-02-14T07:12:29;6.60;75.40
38008;DHT22;75335;50.812;12.376;2024-02-14T07:15:06;6.60;75.00
38008;DHT22;75335;50.812;12.376;2024-02-14T07:17:47;6.60;75.10
38008;DHT22;75335;50.812;12.376;2024-02-14T07:20:23;6.70;75.10
38008;DHT22;75335;50.812;12.376;2024-02-14T07:22:57;6.70;75.00
38008;DHT22;75335;50.812;12.376;2024-02-14T07:25:29;6.70;74.90
38008;DHT22;75335;50.812;12.376;2024-02-14T07:28:07;6.80;74.90
38008;DHT22;75335;50.812;12.376;2024-02-14T07:30:40;6.80;75.00
38008;DHT22;75335;50.812;12.376;2024-02-14T07:33:09;6.80;75.40
38008;DHT22;75335;50.812;12.376;2024-02-14T07:35:39;6.80;75.40
38008;DHT22;75335;50.812;12.376;2024-02-14T07:38:09;6.80;75.30
38008;DHT22;75335;50.812;12.376;2024-02-14T07:40:40;6.90;75.50
38008;DHT22;75335;50.812;12.376;2024-02-14T07:43:09;6.90;75.20
38008;DHT22;75335;50.812;12.376;2024-02-14T07:45:43;7.10;74.90
38008;DHT22;75335;50.812;12.376;2024-02-14T07:48:12;7.00;75.00
38008;DHT22;75335;50.812;12.376;2024-02-14T07:50:46;7.20;75.00
38008;DHT22;75335;50.812;12.376;2024-02-14T07:53:29;7.30;75.30
38008;DHT22;75335;50.812;12.376;2024-02-14T07:56:00;7.30;74.40
38008;DHT22;75335;50.812;12.376;2024-02-14T07:58:38;7.30;74.50
38008;DHT22;75335;50.812;12.376;2024-02-14T08:01:43;7.40;74.60
38008;DHT22;75335;50.812;12.376;2024-02-14T08:04:14;7.50;74.00
38008;DHT22;75335;50.812;12.376;2024-02-14T08:06:45;7.50;73.90
38008;DHT22;75335;50.812;12.376;2024-02-14T08:09:17;7.50;74.30
38008;DHT22;75335;50.812;12.376;2024-02-14T08:11:46;7.60;74.20
38008;DHT22;75335;50.812;12.376;2024-02-14T08:14:18;7.70;74.20
38008;DHT22;75335;50.812;12.376;2024-02-14T08:16:54;7.60;74.20
38008;DHT22;75335;50.812;12.376;2024-02-14T08:19:22;7.80;74.10
38008;DHT22;75335;50.812;12.376;2024-02-14T08:21:50;7.70;73.90
38008;DHT22;75335;50.812;12.376;2024-02-14T08:24:25;7.80;74.70
38008;DHT22;75335;50.812;12.376;2024-02-14T08:26:54;7.90;74.10
38008;DHT22;75335;50.812;12.376;2024-02-14T08:29:23;8.00;73.40
38008;DHT22;75335;50.812;12.376;2024-02-14T08:31:56;8.10;73.80
38008;DHT22;75335;50.812;12.376;2024-02-14T08:34:27;8.20;73.50
38008;DHT22;75335;50.812;12.376;2024-02-14T08:36:55;8.10;73.20
38008;DHT22;75335;50.812;12.376;2024-02-14T08:39:23;8.20;73.60
38008;DHT22;75335;50.812;12.376;2024-02-14T08:41:52;8.20;73.40
38008;DHT22;75335;50.812;12.376;2024-02-14T08:44:21;8.40;73.10
38008;DHT22;75335;50.812;12.376;2024-02-14T08:46:49;8.60;72.90
38008;DHT22;75335;50.812;12.376;2024-02-14T08:49:21;8.60;74.10
38008;DHT22;75335;50.812;12.376;2024-02-14T08:51:50;8.70;73.70
38008;DHT22;75335;50.812;12.376;2024-02-14T08:54:22;8.50;74.80
38008;DHT22;75335;50.812;12.376;2024-02-14T08:56:54;8.60;75.60
38008;DHT22;75335;50.812;12.376;2024-02-14T08:59:25;8.90;75.30
38008;DHT22;75335;50.812;12.376;2024-02-14T09:01:54;9.20;73.50
38008;DHT22;75335;50.812;12.376;2024-02-14T09:04:25;9.70;72.40
38008;DHT22;75335;50.812;12.376;2024-02-14T09:06:54;9.80;72.40
38008;DHT22;75335;50.812;12.376;2024-02-14T09:09:23;10.00;72.20
38008;DHT22;75335;50.812;12.376;2024-02-14T09:11:52;10.10;71.30
38008;DHT22;75335;50.812;12.376;2024-02-14T09:14:21;9.80;72.10
38008;DHT22;75335;50.812;12.376;2024-02-14T09:16:49;9.70;73.10
38008;DHT22;75335;50.812;12.376;2024-02-14T09:19:16;9.50;74.40
38008;DHT22;75335;50.812;12.376;2024-02-14T09:21:50;9.50;74.50
38008;DHT22;75335;50.812;12.376;2024-02-14T09:24:18;9.50;75.00
38008;DHT22;75335;50.812;12.376;2024-02-14T09:26:46;9.40;75.20
38008;DHT22;75335;50.812;12.376;2024-02-14T09:29:14;9.30;76.00
38008;DHT22;75335;50.812;12.376;2024-02-14T09:31:42;9.10;76.90
38008;DHT22;75335;50.812;12.376;2024-02-14T09:34:13;9.10;77.00
38008;DHT22;75335;50.812;12.376;2024-02-14T09:36:44;8.90;77.80
38008;DHT22;75335;50.812;12.376;2024-02-14T09:39:13;9.00;78.60
38008;DHT22;75335;50.812;12.376;2024-02-14T09:41:46;8.70;79.10
38008;DHT22;75335;50.812;12.376;2024-02-14T09:44:20;8.90;80.00
38008;DHT22;75335;50.812;12.376;2024-02-14T09:46:55;8.80;79.40
38008;DHT22;75335;50.812;12.376;2024-02-14T09:49:25;8.90;79.40
38008;DHT22;75335;50.812;12.376;2024-02-14T09:51:56;8.90;79.00
38008;DHT22;75335;50.812;12.376;2024-02-14T09:54:26;8.90;78.40
38008;DHT22;75335;50.812;12.376;2024-02-14T09:56:58;8.90;78.40
38008;DHT22;75335;50.812;12.376;2024-02-14T09:59:26;8.90;78.60
38008;DHT22;75335;50.812;12.376;2024-02-14T10:01:56;9.00;78.20
38008;DHT22;75335;50.812;12.376;2024-02-14T10:04:24;9.00;77.90
38008;DHT22;75335;50.812;12.376;2024-02-14T10:06:52;9.20;77.90
38008;DHT22;75335;50.812;12.376;2024-02-14T10:09:20;9.30;77.60
38008;DHT22;75335;50.812;12.376;2024-02-14T10:11:51;9.40;77.20
38008;DHT22;75335;50.812;12.376;2024-02-14T10:14:20;9.40;76.80
38008;DHT22;75335;50.812;12.376;2024-02-14T10:16:50;9.60;76.80
38008;DHT22;75335;50.812;12.376;2024-02-14T10:19:18;9.40;77.70
38008;DHT22;75335;50.812;12.376;2024-02-14T10:21:55;9.40;78.00
38008;DHT22;75335;50.812;12.376;2024-02-14T10:24:25;9.30;78.20
38008;DHT22;75335;50.812;12.376;2024-02-14T10:26:55;9.30;78.40
38008;DHT22;75335;50.812;12.376;2024-02-14T10:29:23;9.30;78.30
38008;DHT22;75335;50.812;12.376;2024-02-14T10:31:52;9.30;78.60
38008;DHT22;75335;50.812;12.376;2024-02-14T10:34:24;9.40;77.80
38008;DHT22;75335;50.812;12.376;2024-02-14T10:36:53;9.40;78.10
38008;DHT22;75335;50.812;12.376;2024-02-14T10:39:26;9.50;77.90
38008;DHT22;75335;50.812;12.376;2024-02-14T10:41:55;9.60;77.40
38008;DHT22;75335;50.812;12.376;2024-02-14T10:44:24;9.90;77.40
38008;DHT22;75335;50.812;12.376;2024-02-14T10:46:56;10.20;75.80
38008;DHT22;75335;50.812;12.376;2024-02-14T10:49:29;10.80;72.90
38008;DHT22;75335;50.812;12.376;2024-02-14T10:51:58;10.90;72.60
38008;DHT22;75335;50.812;12.376;2024-02-14T10:54:30;10.90;72.50
38008;DHT22;75335;50.812;12.376;2024-02-14T10:57:04;10.50;73.90
38008;DHT22;75335;50.812;12.376;2024-02-14T10:59:40;10.50;73.70
38008;DHT22;75335;50.812;12.376;2024-02-14T11:02:10;10.50;74.30
38008;DHT22;75335;50.812;12.376;2024-02-14T11:04:39;10.40;74.50
38008;DHT22;75335;50.812;12.376;2024-02-14T11:07:09;10.60;74.40
38008;DHT22;75335;50.812;12.376;2024-02-14T11:09:39;10.80;74.30
38008;DHT22;75335;50.812;12.376;2024-02-14T11:12:12;10.80;73.40
38008;DHT22;75335;50.812;12.376;2024-02-14T11:14:42;10.60;73.70
38008;DHT22;75335;50.812;12.376;2024-02-14T11:17:12;10.60;74.00
38008;DHT22;75335;50.812;12.376;2024-02-14T11:19:40;10.40;75.00
38008;DHT22;75335;50.812;12.376;2024-02-14T11:22:13;10.40;75.30
38008;DHT22;75335;50.812;12.376;2024-02-14T11:24:46;10.40;75.60
38008;DHT22;75335;50.812;12.376;2024-02-14T11:27:18;10.90;74.20
38008;DHT22;75335;50.812;12.376;2024-02-14T11:29:53;10.90;72.60
38008;DHT22;75335;50.812;12.376;2024-02-14T11:32:22;11.50;71.60
38008;DHT22;75335;50.812;12.376;2024-02-14T11:34:54;11.70;71.00
38008;DHT22;75335;50.812;12.376;2024-02-14T11:37:27;11.60;70.20
38008;DHT22;75335;50.812;12.376;2024-02-14T11:39:57;11.30;72.10
38008;DHT22;75335;50.812;12.376;2024-02-14T11:42:27;11.30;72.00
38008;DHT22;75335;50.812;12.376;2024-02-14T11:44:55;11.80;70.30
38008;DHT22;75335;50.812;12.376;2024-02-14T11:47:23;11.30;71.50
38008;DHT22;75335;50.812;12.376;2024-02-14T11:49:51;11.10;72.90
38008;DHT22;75335;50.812;12.376;2024-02-14T11:52:20;11.20;72.90
38008;DHT22;75335;50.812;12.376;2024-02-14T11:54:48;11.20;73.50
38008;DHT22;75335;50.812;12.376;2024-02-14T11:57:17;10.80;74.00
38008;DHT22;75335;50.812;12.376;2024-02-14T11:59:48;10.40;76.00
38008;DHT22;75335;50.812;12.376;2024-02-14T12:02:18;10.30;76.20
38008;DHT22;75335;50.812;12.376;2024-02-14T12:04:47;10.40;77.00
38008;DHT22;75335;50.812;12.376;2024-02-14T12:07:20;10.40;76.40
38008;DHT22;75335;50.812;12.376;2024-02-14T12:09:48;10.30;76.30
38008;DHT22;75335;50.812;12.376;2024-02-14T12:12:16;10.50;76.20
38008;DHT22;75335;50.812;12.376;2024-02-14T12:14:47;10.50;75.70
38008;DHT22;75335;50.812;12.376;2024-02-14T12:17:16;10.60;75.80
38008;DHT22;75335;50.812;12.376;2024-02-14T12:19:45;10.50;76.00
38008;DHT22;75335;50.812;12.376;2024-02-14T12:22:15;10.50;76.00
38008;DHT22;75335;50.812;12.376;2024-02-14T12:24:46;10.40;76.20
38008;DHT22;75335;50.812;12.376;2024-02-14T12:27:17;10.30;76.70
38008;DHT22;75335;50.812;12.376;2024-02-14T12:29:47;10.40;77.70
38008;DHT22;75335;50.812;12.376;2024-02-14T12:32:16;10.40;76.90
38008;DHT22;75335;50.812;12.376;2024-02-14T12:34:45;10.40;76.90
38008;DHT22;75335;50.812;12.376;2024-02-14T12:37:13;10.70;76.30
38008;DHT22;75335;50.812;12.376;2024-02-14T12:39:41;10.90;75.30
38008;DHT22;75335;50.812;12.376;2024-02-14T12:42:09;10.90;75.70
38008;DHT22;75335;50.812;12.376;2024-02-14T12:44:38;11.40;74.40
38008;DHT22;75335;50.812;12.376;2024-02-14T12:47:08;11.40;73.80
38008;DHT22;75335;50.812;12.376;2024-02-14T12:49:40;11.70;73.10
38008;DHT22;75335;50.812;12.376;2024-02-14T12:52:07;11.10;74.80
38008;DHT22;75335;50.812;12.376;2024-02-14T12:54:35;10.90;76.20
38008;DHT22;75335;50.812;12.376;2024-02-14T12:57:04;10.60;76.80
38008;DHT22;75335;50.812;12.376;2024-02-14T12:59:32;10.50;77.50
38008;DHT22;75335;50.812;12.376;2024-02-14T13:02:00;10.40;78.50
38008;DHT22;75335;50.812;12.376;2024-02-14T13:04:30;10.40;79.00
38008;DHT22;75335;50.812;12.376;2024-02-14T13:06:58;10.30;79.10
38008;DHT22;75335;50.812;12.376;2024-02-14T13:09:28;10.20;79.60
38008;DHT22;75335;50.812;12.376;2024-02-14T13:11:55;10.30;79.30
38008;DHT22;75335;50.812;12.376;2024-02-14T13:14:24;10.20;79.80
38008;DHT22;75335;50.812;12.376;2024-02-14T13:16:52;10.10;79.40
38008;DHT22;75335;50.812;12.376;2024-02-14T13:19:21;10.20;79.50
38008;DHT22;75335;50.812;12.376;2024-02-14T13:21:50;10.10;79.80
38008;DHT22;75335;50.812;12.376;2024-02-14T13:24:18;10.20;79.60
38008;DHT22;75335;50.812;12.376;2024-02-14T13:26:46;10.10;79.80
38008;DHT22;75335;50.812;12.376;2024-02-14T13:29:15;10.20;80.00
38008;DHT22;75335;50.812;12.376;2024-02-14T13:31:45;10.30;79.90
38008;DHT22;75335;50.812;12.376;2024-02-14T13:34:14;10.20;80.00
38008;DHT22;75335;50.812;12.376;2024-02-14T13:36:42;10.20;79.90
38008;DHT22;75335;50.812;12.376;2024-02-14T13:39:12;10.20;80.10
38008;DHT22;75335;50.812;12.376;2024-02-14T13:41:41;10.30;80.30
38008;DHT22;75335;50.812;12.376;2024-02-14T13:44:10;10.30;79.80
38008;DHT22;75335;50.812;12.376;2024-02-14T13:46:43;10.30;79.70
38008;DHT22;75335;50.812;12.376;2024-02-14T13:49:12;10.50;79.70
38008;DHT22;75335;50.812;12.376;2024-02-14T13:51:44;10.40;80.10
38008;DHT22;75335;50.812;12.376;2024-02-14T13:54:13;10.20;79.40
38008;DHT22;75335;50.812;12.376;2024-02-14T13:56:51;10.20;79.70
38008;DHT22;75335;50.812;12.376;2024-02-14T13:59:20;10.30;79.90
38008;DHT22;75335;50.812;12.376;2024-02-14T14:01:49;10.40;80.00
38008;DHT22;75335;50.812;12.376;2024-02-14T14:04:17;10.30;80.10
38008;DHT22;75335;50.812;12.376;2024-02-14T14:06:46;10.20;80.10
38008;DHT22;75335;50.812;12.376;2024-02-14T14:09:22;10.20;80.30
38008;DHT22;75335;50.812;12.376;2024-02-14T14:11:50;10.20;80.40
38008;DHT22;75335;50.812;12.376;2024-02-14T14:14:20;10.20;80.20
38008;DHT22;75335;50.812;12.376;2024-02-14T14:16:49;10.20;80.00
38008;DHT22;75335;50.812;12.376;2024-02-14T14:19:18;10.30;80.20
38008;DHT22;75335;50.812;12.376;2024-02-14T14:21:47;10.20;80.30
38008;DHT22;75335;50.812;12.376;2024-02-14T14:24:30;10.30;80.50
38008;DHT22;75335;50.812;12.376;2024-02-14T14:26:59;10.20;80.50
38008;DHT22;75335;50.812;12.376;2024-02-14T14:29:28;10.20;80.80
38008;DHT22;75335;50.812;12.376;2024-02-14T14:31:59;10.20;80.70
38008;DHT22;75335;50.812;12.376;2024-02-14T14:34:27;10.30;80.80
38008;DHT22;75335;50.812;12.376;2024-02-14T14:37:00;10.30;80.80
38008;DHT22;75335;50.812;12.376;2024-02-14T14:39:30;10.30;80.70
38008;DHT22;75335;50.812;12.376;2024-02-14T14:42:01;10.40;80.80
38008;DHT22;75335;50.812;12.376;2024-02-14T14:44:30;10.40;80.40
38008;DHT22;75335;50.812;12.376;2024-02-14T14:47:01;10.30;80.70
38008;DHT22;75335;50.812;12.376;2024-02-14T14:49:32;10.30;80.70
38008;DHT22;75335;50.812;12.376;2024-02-14T14:52:07;10.30;81.00
38008;DHT22;75335;50.812;12.376;2024-02-14T14:54:37;10.30;80.90
38008;DHT22;75335;50.812;12.376;2024-02-14T14:57:07;10.40;80.50
38008;DHT22;75335;50.812;12.376;2024-02-14T14:59:40;10.40;80.30
38008;DHT22;75335;50.812;12.376;2024-02-14T15:02:10;10.50;80.60
38008;DHT22;75335;50.812;12.376;2024-02-14T15:04:40;10.40;80.80
38008;DHT22;75335;50.812;12.376;2024-02-14T15:07:10;10.30;80.80
38008;DHT22;75335;50.812;12.376;2024-02-14T15:09:51;10.20;80.50
38008;DHT22;75335;50.812;12.376;2024-02-14T15:12:26;10.10;80.70
38008;DHT22;75335;50.812;12.376;2024-02-14T15:14:59;10.10;81.20
38008;DHT22;75335;50.812;12.376;2024-02-14T15:17:32;10.10;81.30
38008;DHT22;75335;50.812;12.376;2024-02-14T15:20:04;10.10;81.30
38008;DHT22;75335;50.812;12.376;2024-02-14T15:22:35;10.20;81.30
38008;DHT22;75335;50.812;12.376;2024-02-14T15:25:06;10.10;81.80
38008;DHT22;75335;50.812;12.376;2024-02-14T15:27:34;10.10;81.80
38008;DHT22;75335;50.812;12.376;2024-02-14T15:30:08;10.00;82.30
38008;DHT22;75335;50.812;12.376;2024-02-14T15:32:55;10.00;82.40
38008;DHT22;75335;50.812;12.376;2024-02-14T15:35:40;9.90;82.50
38008;DHT22;75335;50.812;12.376;2024-02-14T15:38:09;9.90;82.60
38008;DHT22;75335;50.812;12.376;2024-02-14T15:40:39;9.80;82.90
38008;DHT22;75335;50.812;12.376;2024-02-14T15:43:07;9.90;82.90
38008;DHT22;75335;50.812;12.376;2024-02-14T15:45:35;9.80;83.00